Time;durP1;ratioP1;P1;durP2;ratioP2;P2;SDS_P1;SDS_P2;PMS_P1;PMS_P2;Temp;Humidity;BMP_temperature;BMP_pressure;BME280_temperature;BME280_humidity;BME280_pressure;Samples;Min_cycle;Max_cycle;Signal;HPM_P1;HPM_P2
2022/06/20 07:47:15;;;;;;;;;;;;;;;28.81;75.09;98172.50;4809600;29;19964;-70
2022/06/20 07:49:47;;;;;;;;;;;;;;;28.89;73.77;98161.25;4809048;29;19990;-71
2022/06/20 07:52:40;;;;;;;;;;;;;;;28.78;76.95;98162.06;4809472;29;19950;-70
2022/06/20 07:55:19;;;;;;;;;;;;;;;29.02;71.28;98164.38;4806105;29;19961;-71
2022/06/20 07:57:55;;;;;;;;;;;;;;;29.00;72.82;98162.00;4811328;29;19949;-71
2022/06/20 08:00:25;;;;;;;;;;;;;;;29.08;78.32;98162.25;4811995;29;19951;-71
2022/06/20 08:02:55;;;;;;;;;;;;;;;29.25;79.68;98160.16;4811038;29;19949;-71
2022/06/20 08:05:44;;;;;;;;;;;;;;;29.35;70.17;98152.78;4811908;29;19961;-71
2022/06/20 08:08:19;;;;;;;;;;;;;;;29.37;76.08;98152.28;4811532;29;19949;-69
2022/06/20 08:10:50;;;;;;;;;;;;;;;29.50;73.94;98152.47;4812105;29;19941;-69
2022/06/20 08:13:17;;;;;;;;;;;;;;;29.42;71.83;98160.13;4812035;29;20237;-69
2022/06/20 08:15:44;;;;;;;;;;;;;;;29.65;69.38;98150.06;4811186;29;19957;-69
2022/06/20 08:18:12;;;;;;;;;;;;;;;29.71;72.74;98150.84;4811226;29;20239;-69
2022/06/20 08:20:42;;;;;;;;;;;;;;;29.79;68.99;98152.63;4812018;29;20248;-69
2022/06/20 08:23:13;;;;;;;;;;;;;;;29.75;72.07;98159.97;4811462;29;19982;-69
2022/06/20 08:25:44;;;;;;;;;;;;;;;29.75;71.02;98148.44;4811000;29;19952;-69
2022/06/20 08:28:15;;;;;;;;;;;;;;;29.95;68.13;98158.84;4809062;29;19958;-69
2022/06/20 08:31:01;;;;;;;;;;;;;;;30.01;68.79;98151.72;4810904;29;19967;-70
2022/06/20 08:33:34;;;;;;;;;;;;;;;30.10;66.11;98153.53;4799658;29;20246;-69
2022/06/20 08:36:19;;;;;;;;;;;;;;;30.07;67.75;98154.59;4806309;29;19963;-69
2022/06/20 08:38:56;;;;;;;;;;;;;;;30.20;73.42;98149.75;4801499;29;19946;-70
2022/06/20 08:41:42;;;;;;;;;;;;;;;30.27;69.76;98154.97;4794067;29;19950;-70
2022/06/20 08:44:10;;;;;;;;;;;;;;;30.40;68.80;98145.72;4801063;29;19952;-70
2022/06/20 08:46:40;;;;;;;;;;;;;;;30.48;64.83;98150.38;4801178;29;19987;-69
2022/06/20 08:49:28;;;;;;;;;;;;;;;30.50;66.76;98141.97;4810164;29;20001;-70
2022/06/20 08:52:09;;;;;;;;;;;;;;;30.42;69.57;98137.31;4793327;29;19951;-70
2022/06/20 08:54:55;;;;;;;;;;;;;;;30.38;64.28;98134.72;4810149;29;19954;-70
2022/06/20 08:57:29;;;;;;;;;;;;;;;30.40;64.34;98134.97;4807395;29;19955;-70
2022/06/20 09:00:03;;;;;;;;;;;;;;;30.52;61.54;98130.66;4809500;29;19950;-70
2022/06/20 09:02:33;;;;;;;;;;;;;;;30.57;59.71;98128.28;4810074;29;19954;-70
2022/06/20 09:05:09;;;;;;;;;;;;;;;30.63;59.81;98134.78;4808341;29;19989;-69
2022/06/20 09:07:43;;;;;;;;;;;;;;;30.54;56.81;98138.81;4809498;29;19949;-69
2022/06/20 09:10:36;;;;;;;;;;;;;;;30.58;56.16;98130.63;4809181;29;19971;-70
2022/06/20 09:13:24;;;;;;;;;;;;;;;30.60;61.06;98130.84;4797148;29;19956;-70
2022/06/20 09:16:09;;;;;;;;;;;;;;;30.73;66.76;98118.69;4797496;29;20253;-70
2022/06/20 09:18:37;;;;;;;;;;;;;;;30.74;65.18;98128.91;4807202;29;19953;-70
2022/06/20 09:21:16;;;;;;;;;;;;;;;30.63;59.31;98129.00;4809933;29;19949;-70
2022/06/20 09:23:46;;;;;;;;;;;;;;;30.83;69.48;98123.56;4805262;29;19948;-70
2022/06/20 09:26:23;;;;;;;;;;;;;;;30.64;65.05;98121.91;4810158;29;19955;-70
2022/06/20 09:28:50;;;;;;;;;;;;;;;30.82;58.20;98126.97;4809180;29;19957;-70
2022/06/20 09:31:24;;;;;;;;;;;;;;;30.94;57.52;98126.38;4808354;29;19953;-70
2022/06/20 09:33:58;;;;;;;;;;;;;;;30.99;56.08;98124.75;4806394;29;19966;-70
2022/06/20 09:36:37;;;;;;;;;;;;;;;30.89;60.24;98132.97;4800174;29;21679;-70
2022/06/20 09:39:10;;;;;;;;;;;;;;;30.97;54.85;98125.28;4807895;29;19953;-70
2022/06/20 09:41:38;;;;;;;;;;;;;;;31.03;57.21;98123.09;4809441;29;19954;-70
2022/06/20 09:44:20;;;;;;;;;;;;;;;30.80;56.16;98115.97;4811566;29;20240;-70
2022/06/20 09:47:00;;;;;;;;;;;;;;;30.95;60.64;98113.50;4800967;29;19969;-70
2022/06/20 09:49:34;;;;;;;;;;;;;;;31.00;54.96;98112.66;4804540;29;19968;-70
2022/06/20 09:52:02;;;;;;;;;;;;;;;30.93;50.51;98116.16;4802112;29;19958;-70
2022/06/20 09:54:34;;;;;;;;;;;;;;;31.09;51.19;98111.50;4809027;29;19963;-70
2022/06/20 09:57:11;;;;;;;;;;;;;;;31.14;49.63;98116.44;4809140;29;19949;-69
2022/06/20 09:59:55;;;;;;;;;;;;;;;31.10;54.80;98118.84;4808772;29;19951;-70
2022/06/20 10:02:34;;;;;;;;;;;;;;;31.13;51.89;98123.53;4809443;29;21948;-70
2022/06/20 10:05:22;;;;;;;;;;;;;;;31.11;51.25;98121.19;4807796;29;19957;-70
2022/06/20 10:07:53;;;;;;;;;;;;;;;31.01;47.57;98111.31;4794997;29;19961;-69
2022/06/20 10:10:32;;;;;;;;;;;;;;;30.99;57.91;98116.06;4808280;29;19982;-70
2022/06/20 10:13:07;;;;;;;;;;;;;;;30.99;54.76;98102.41;4808127;29;19948;-69
2022/06/20 10:15:50;;;;;;;;;;;;;;;31.21;53.25;98110.06;4808286;29;19947;-70
2022/06/20 10:18:23;;;;;;;;;;;;;;;31.19;50.37;98099.06;4795625;29;19953;-69
2022/06/20 10:21:13;;;;;;;;;;;;;;;31.35;52.51;98105.19;4791373;30;20358;-69
2022/06/20 10:23:59;;;;;;;;;;;;;;;31.50;51.06;98099.75;4795094;29;19962;-69
2022/06/20 10:26:29;;;;;;;;;;;;;;;31.30;48.45;98092.34;4809123;29;19951;-65
2022/06/20 10:29:15;;;;;;;;;;;;;;;31.34;53.68;98086.25;4809000;29;19956;-67
2022/06/20 10:31:44;;;;;;;;;;;;;;;31.05;52.96;98085.81;4808518;29;19954;-64
2022/06/20 10:34:37;;;;;;;;;;;;;;;31.12;57.68;98082.31;4808724;29;19958;-64
2022/06/20 10:37:18;;;;;;;;;;;;;;;30.93;54.36;98086.50;4805974;29;19950;-64
2022/06/20 10:39:57;;;;;;;;;;;;;;;30.98;58.71;98085.66;4812128;29;20327;-64
2022/06/20 10:42:30;;;;;;;;;;;;;;;30.88;54.44;98075.75;4815581;29;19954;-64
2022/06/20 10:45:07;;;;;;;;;;;;;;;30.92;49.18;98079.13;4815874;29;19948;-64
2022/06/20 10:47:45;;;;;;;;;;;;;;;30.90;55.20;98071.03;4805847;29;20448;-64
2022/06/20 10:50:15;;;;;;;;;;;;;;;30.87;54.89;98079.94;4812865;29;20532;-65
2022/06/20 10:52:53;;;;;;;;;;;;;;;30.93;55.28;98069.16;4815735;29;20245;-65
2022/06/20 10:55:37;;;;;;;;;;;;;;;30.92;60.09;98079.13;4807193;29;19957;-65
2022/06/20 10:58:10;;;;;;;;;;;;;;;30.99;52.62;98082.19;4808299;29;19949;-66
2022/06/20 11:01:00;;;;;;;;;;;;;;;30.96;53.99;98073.84;4802626;29;19953;-65
2022/06/20 11:03:44;;;;;;;;;;;;;;;31.04;61.02;98066.91;4807099;29;19961;-66
2022/06/20 11:06:30;;;;;;;;;;;;;;;31.16;56.29;98076.22;4802508;29;19955;-67
2022/06/20 11:09:00;;;;;;;;;;;;;;;31.16;57.17;98071.25;4805772;29;20247;-67
2022/06/20 11:11:44;;;;;;;;;;;;;;;31.22;61.33;98071.19;4807948;29;19972;-65
2022/06/20 11:14:11;;;;;;;;;;;;;;;31.37;52.46;98070.72;4800675;29;19953;-65
2022/06/20 11:16:57;;;;;;;;;;;;;;;31.39;51.21;98071.75;4801666;29;19979;-67
2022/06/20 11:19:29;;;;;;;;;;;;;;;31.55;53.83;98069.97;4807938;29;19950;-67
2022/06/20 11:22:15;;;;;;;;;;;;;;;31.65;56.63;98071.94;4803761;29;19950;-67
2022/06/20 11:24:48;;;;;;;;;;;;;;;31.64;49.08;98070.38;4809735;29;19953;-67
2022/06/20 11:27:18;;;;;;;;;;;;;;;31.68;52.17;98072.97;4811093;29;19948;-67
2022/06/20 11:30:01;;;;;;;;;;;;;;;31.74;50.16;98086.00;4813007;29;19952;-68
2022/06/20 11:32:47;;;;;;;;;;;;;;;31.66;48.82;98075.63;4811442;29;19949;-68
2022/06/20 11:35:24;;;;;;;;;;;;;;;31.62;48.81;98073.03;4809159;29;19958;-68
2022/06/20 11:38:06;;;;;;;;;;;;;;;31.83;47.45;98079.84;4814643;29;19953;-68
2022/06/20 11:40:36;;;;;;;;;;;;;;;31.82;47.26;98077.47;4810550;29;19952;-68
2022/06/20 11:43:03;;;;;;;;;;;;;;;31.73;50.41;98064.22;4811797;29;19947;-67
2022/06/20 11:46:09;;;;;;;;;;;;;;;31.62;48.51;98060.72;4810578;29;20256;-68
2022/06/20 11:48:39;;;;;;;;;;;;;;;31.73;48.41;98055.53;4714510;30;20350;-68
2022/06/20 11:51:13;;;;;;;;;;;;;;;31.77;46.61;98061.78;4721213;30;19976;-68
2022/06/20 11:53:59;;;;;;;;;;;;;;;31.73;47.40;98069.22;4769712;29;19949;-68
2022/06/20 11:56:35;;;;;;;;;;;;;;;31.73;49.10;98060.53;4807733;29;20365;-68
2022/06/20 11:59:34;;;;;;;;;;;;;;;31.70;50.65;98078.97;4807309;29;19956;-68
2022/06/20 12:02:22;;;;;;;;;;;;;;;31.78;48.24;98074.13;4810272;29;19951;-67
2022/06/20 12:04:53;;;;;;;;;;;;;;;31.70;48.33;98071.09;4809156;29;19952;-67
2022/06/20 12:07:46;;;;;;;;;;;;;;;31.79;53.13;98072.81;4812231;29;19949;-68
2022/06/20 12:10:27;;;;;;;;;;;;;;;31.81;51.78;98073.81;4810016;29;19966;-68
2022/06/20 12:12:54;;;;;;;;;;;;;;;31.81;49.08;98064.38;4806116;29;19948;-68
2022/06/20 12:15:27;;;;;;;;;;;;;;;31.81;51.65;98073.81;4809706;29;19957;-68
2022/06/20 12:18:03;;;;;;;;;;;;;;;31.81;49.35;98070.91;4807065;29;19953;-68
2022/06/20 12:23:25;;;;;;;;;;;;;;;31.68;46.17;98056.41;4810687;29;19956;-68
2022/06/20 12:26:01;;;;;;;;;;;;;;;31.54;46.54;98049.00;4817727;29;20253;-68
2022/06/20 12:28:37;;;;;;;;;;;;;;;31.51;51.64;98052.19;4818176;29;19977;-68
2022/06/20 12:31:07;;;;;;;;;;;;;;;31.46;56.40;98048.03;4806963;29;19965;-68
2022/06/20 12:33:55;;;;;;;;;;;;;;;31.58;57.91;98049.44;4805297;29;19950;-68
2022/06/20 12:36:27;;;;;;;;;;;;;;;31.56;48.67;98034.75;4806435;29;19964;-68
2022/06/20 12:38:58;;;;;;;;;;;;;;;31.74;49.60;98038.97;4807526;29;19949;-68
2022/06/20 12:41:27;;;;;;;;;;;;;;;31.62;54.69;98029.66;4810907;29;20236;-68
2022/06/20 12:43:57;;;;;;;;;;;;;;;31.70;53.75;98039.28;4809040;29;19953;-68
2022/06/20 12:46:27;;;;;;;;;;;;;;;31.53;56.51;98032.97;4807217;29;20245;-68
2022/06/20 12:49:33;;;;;;;;;;;;;;;31.61;46.79;98031.00;4808505;29;20349;-68
2022/06/20 12:52:00;;;;;;;;;;;;;;;31.41;49.09;98019.97;4771808;30;19967;-68
2022/06/20 12:54:42;;;;;;;;;;;;;;;31.54;47.75;98022.97;4769062;30;20354;-68
2022/06/20 12:57:24;;;;;;;;;;;;;;;31.55;44.52;98009.28;4789036;29;19952;-68
2022/06/20 13:00:01;;;;;;;;;;;;;;;31.50;47.04;98008.03;4810635;29;19957;-68
2022/06/20 13:02:31;;;;;;;;;;;;;;;31.48;44.54;98010.69;4799427;29;19950;-68
2022/06/20 13:05:17;;;;;;;;;;;;;;;31.54;46.92;98011.41;4807967;29;19961;-68
2022/06/20 13:07:53;;;;;;;;;;;;;;;31.43;45.00;98004.94;4800657;29;19950;-68
2022/06/20 13:10:35;;;;;;;;;;;;;;;31.34;50.51;98000.38;4810272;29;19959;-68
2022/06/20 13:13:08;;;;;;;;;;;;;;;31.38;49.08;97992.16;4810112;29;19976;-68
2022/06/20 13:15:41;;;;;;;;;;;;;;;31.48;39.35;97984.69;4810254;29;19954;-68
2022/06/20 13:18:20;;;;;;;;;;;;;;;31.50;40.02;97984.91;4810450;29;19953;-68
2022/06/20 13:20:48;;;;;;;;;;;;;;;31.37;41.65;97981.16;4807956;29;20031;-68
2022/06/20 13:23:15;;;;;;;;;;;;;;;31.41;39.84;97981.59;4814470;29;19949;-68
2022/06/20 13:25:54;;;;;;;;;;;;;;;31.39;40.46;97975.59;4805597;29;19958;-68
2022/06/20 13:28:40;;;;;;;;;;;;;;;31.42;37.85;97977.41;4802019;29;20244;-68
2022/06/20 13:31:11;;;;;;;;;;;;;;;31.45;35.94;97988.66;4798638;29;19981;-68
2022/06/20 13:33:50;;;;;;;;;;;;;;;31.40;41.27;97975.03;4796031;29;19980;-67
2022/06/20 13:36:20;;;;;;;;;;;;;;;31.44;40.02;97977.66;4809829;29;19956;-68
2022/06/20 13:39:10;;;;;;;;;;;;;;;31.50;41.70;97978.34;4809864;29;19957;-68
2022/06/20 13:41:41;;;;;;;;;;;;;;;31.46;37.82;97967.13;4810511;29;19949;-68
2022/06/20 13:44:27;;;;;;;;;;;;;;;31.44;37.45;97963.22;4804391;29;19955;-68
2022/06/20 13:47:02;;;;;;;;;;;;;;;31.50;37.31;97969.66;4793902;29;19974;-68
2022/06/20 13:49:50;;;;;;;;;;;;;;;31.53;36.46;97966.47;4798241;29;19949;-68
2022/06/20 13:52:29;;;;;;;;;;;;;;;31.41;36.41;97970.84;4802705;29;19971;-68
2022/06/20 13:55:18;;;;;;;;;;;;;;;31.26;37.62;97952.41;4822625;29;19950;-68
2022/06/20 13:57:54;;;;;;;;;;;;;;;31.33;35.94;97963.31;4809342;29;19978;-68
2022/06/20 14:00:29;;;;;;;;;;;;;;;31.40;38.10;97962.72;4806616;29;19949;-68
2022/06/20 14:03:10;;;;;;;;;;;;;;;31.36;36.56;97942.00;4809378;29;19950;-68
2022/06/20 14:05:41;;;;;;;;;;;;;;;31.24;36.34;97941.41;4814927;29;19949;-68
2022/06/20 14:08:14;;;;;;;;;;;;;;;31.33;36.50;97960.44;4818352;29;20237;-68
2022/06/20 14:10:47;;;;;;;;;;;;;;;31.30;40.09;97947.88;4809289;29;19955;-68
2022/06/20 14:13:35;;;;;;;;;;;;;;;31.32;35.28;97944.44;4809710;29;19948;-68
2022/06/20 14:16:16;;;;;;;;;;;;;;;31.40;33.62;97942.50;4812140;29;19949;-68
2022/06/20 14:18:52;;;;;;;;;;;;;;;31.30;34.70;97933.41;4814170;29;19956;-68
2022/06/20 14:21:20;;;;;;;;;;;;;;;31.28;32.50;97924.53;4807505;29;19981;-68
2022/06/20 14:23:49;;;;;;;;;;;;;;;31.23;36.05;97930.41;4804829;29;19970;-68
2022/06/20 14:26:25;;;;;;;;;;;;;;;31.12;34.61;97935.00;4803999;29;19953;-68
2022/06/20 14:28:53;;;;;;;;;;;;;;;31.16;36.53;97934.69;4804974;29;19950;-68
2022/06/20 14:31:25;;;;;;;;;;;;;;;31.16;36.47;97923.91;4809544;29;20037;-68
2022/06/20 14:33:56;;;;;;;;;;;;;;;31.25;37.47;97934.31;4809078;29;19956;-68
2022/06/20 14:36:41;;;;;;;;;;;;;;;31.14;37.60;97923.69;4809890;29;19960;-68
2022/06/20 14:39:11;;;;;;;;;;;;;;;31.20;40.82;97924.38;4809833;29;19959;-68
2022/06/20 14:41:56;;;;;;;;;;;;;;;31.20;38.73;97926.50;4809079;29;19958;-68
2022/06/20 14:44:38;;;;;;;;;;;;;;;31.24;39.85;97921.19;4809624;29;20351;-68
2022/06/20 14:47:06;;;;;;;;;;;;;;;31.14;39.84;97928.66;4809566;29;19967;-68
2022/06/20 14:49:48;;;;;;;;;;;;;;;31.06;40.13;97925.63;4808087;29;19958;-68
2022/06/20 14:52:33;;;;;;;;;;;;;;;31.08;38.20;97919.31;4808355;29;20253;-68
2022/06/20 14:55:03;;;;;;;;;;;;;;;30.96;41.00;97924.44;4810461;29;19953;-68
2022/06/20 14:57:30;;;;;;;;;;;;;;;30.91;40.56;97936.09;4812444;29;19954;-68
2022/06/20 14:59:57;;;;;;;;;;;;;;;30.86;41.77;97934.78;4811999;29;19969;-68
2022/06/20 15:02:37;;;;;;;;;;;;;;;30.83;38.76;97927.22;4811762;29;19959;-68
2022/06/20 15:05:17;;;;;;;;;;;;;;;30.72;38.22;97921.59;4811509;29;19957;-68
2022/06/20 15:07:49;;;;;;;;;;;;;;;30.70;39.83;97923.44;4812458;29;19960;-68
2022/06/20 15:10:36;;;;;;;;;;;;;;;30.53;40.52;97912.13;4816515;29;19955;-68
2022/06/20 15:13:17;;;;;;;;;;;;;;;30.57;43.03;97911.81;4812492;29;19980;-68
2022/06/20 15:15:45;;;;;;;;;;;;;;;30.55;41.60;97918.13;4812994;29;19961;-68
2022/06/20 15:18:27;;;;;;;;;;;;;;;30.61;41.12;97912.28;4812583;29;19946;-68
2022/06/20 15:20:57;;;;;;;;;;;;;;;30.53;42.02;97915.78;4812158;29;19962;-68
2022/06/20 15:23:43;;;;;;;;;;;;;;;30.47;43.52;97906.41;4811851;29;19958;-68
2022/06/20 15:26:18;;;;;;;;;;;;;;;30.49;45.57;97903.75;4800463;29;19949;-68
2022/06/20 15:28:57;;;;;;;;;;;;;;;30.36;46.19;97903.66;4798390;29;19967;-68
2022/06/20 15:31:29;;;;;;;;;;;;;;;30.48;47.08;97907.19;4801285;29;19954;-68
2022/06/20 15:33:57;;;;;;;;;;;;;;;30.31;46.12;97887.16;4812302;29;19950;-68
2022/06/20 15:36:30;;;;;;;;;;;;;;;30.31;45.48;97892.94;4812564;29;19957;-68
2022/06/20 15:39:04;;;;;;;;;;;;;;;30.25;47.42;97895.09;4812675;29;19953;-68
2022/06/20 15:44:37;;;;;;;;;;;;;;;30.14;45.28;97886.56;4811325;29;19949;-68
2022/06/20 15:47:07;;;;;;;;;;;;;;;30.17;46.97;97890.47;4829174;29;19973;-68
2022/06/20 15:49:49;;;;;;;;;;;;;;;30.14;46.34;97889.44;4829912;29;19954;-67
2022/06/20 15:52:16;;;;;;;;;;;;;;;30.05;51.07;97891.91;4830312;29;19990;-68
2022/06/20 15:54:56;;;;;;;;;;;;;;;30.00;48.89;97886.97;4830102;29;19953;-68
2022/06/20 15:57:45;;;;;;;;;;;;;;;30.03;45.06;97888.78;4829433;29;20361;-68
2022/06/20 16:00:20;;;;;;;;;;;;;;;29.89;47.88;97896.50;4829927;29;19946;-68
2022/06/20 16:02:56;;;;;;;;;;;;;;;29.76;48.31;97896.38;4829624;29;19948;-68
2022/06/20 16:05:35;;;;;;;;;;;;;;;29.67;49.00;97885.94;4829171;29;19968;-68
2022/06/20 16:08:21;;;;;;;;;;;;;;;29.68;48.01;97883.84;4829956;29;19952;-68
2022/06/20 16:10:54;;;;;;;;;;;;;;;29.71;48.06;97897.19;4827888;29;19954;-68
2022/06/20 16:13:22;;;;;;;;;;;;;;;29.61;48.06;97881.56;4827004;29;20237;-68
2022/06/20 16:15:51;;;;;;;;;;;;;;;29.56;47.92;97879.50;4824489;29;19960;-68
2022/06/20 16:18:18;;;;;;;;;;;;;;;29.38;46.89;97880.16;4830060;29;19955;-68
2022/06/20 16:20:56;;;;;;;;;;;;;;;29.42;47.76;97874.91;4830277;29;19960;-67
2022/06/20 16:23:34;;;;;;;;;;;;;;;29.33;46.88;97873.13;4829670;29;19947;-68
2022/06/20 16:26:13;;;;;;;;;;;;;;;29.42;44.51;97880.69;4829541;29;19949;-67
2022/06/20 16:28:50;;;;;;;;;;;;;;;29.32;46.11;97871.56;4821715;29;19962;-67
2022/06/20 16:31:20;;;;;;;;;;;;;;;29.25;47.76;97877.91;4826776;29;19951;-68
2022/06/20 16:33:49;;;;;;;;;;;;;;;29.12;47.63;97872.75;4830244;29;19976;-68
2022/06/20 16:36:33;;;;;;;;;;;;;;;28.96;48.59;97875.72;4830181;29;19960;-67
2022/06/20 16:39:11;;;;;;;;;;;;;;;29.00;48.10;97879.88;4830091;29;19950;-68
2022/06/20 16:41:41;;;;;;;;;;;;;;;28.93;49.21;97885.44;4830288;29;19948;-68
2022/06/20 16:44:29;;;;;;;;;;;;;;;28.87;48.87;97876.81;4829281;29;20261;-68
2022/06/20 16:47:08;;;;;;;;;;;;;;;28.88;51.26;97868.97;4829869;29;19972;-68
2022/06/20 16:49:36;;;;;;;;;;;;;;;28.85;49.99;97878.66;4829689;29;20251;-68
2022/06/20 16:52:12;;;;;;;;;;;;;;;28.72;52.88;97872.72;4829587;29;19953;-68
2022/06/20 16:54:48;;;;;;;;;;;;;;;28.78;52.96;97873.47;4829634;29;19951;-68
2022/06/20 16:57:21;;;;;;;;;;;;;;;28.69;53.13;97885.28;4829578;29;19956;-68
2022/06/20 16:59:59;;;;;;;;;;;;;;;28.66;52.28;97880.59;4829453;29;19946;-67
2022/06/20 17:02:26;;;;;;;;;;;;;;;28.49;53.68;97881.41;4817885;29;19959;-68
2022/06/20 17:04:57;;;;;;;;;;;;;;;28.58;52.94;97878.25;4828915;29;20342;-68
2022/06/20 17:07:38;;;;;;;;;;;;;;;28.61;53.99;97882.19;4829644;29;19954;-67
2022/06/20 17:10:06;;;;;;;;;;;;;;;28.42;57.88;97878.31;4828960;29;19952;-67
2022/06/20 17:12:33;;;;;;;;;;;;;;;28.42;55.55;97864.72;4829316;29;20266;-68
2022/06/20 17:15:06;;;;;;;;;;;;;;;28.42;56.42;97872.56;4828801;29;19955;-68
2022/06/20 17:17:46;;;;;;;;;;;;;;;28.36;55.86;97881.22;4828800;29;19951;-68
2022/06/20 17:20:22;;;;;;;;;;;;;;;28.25;58.24;97872.63;4826234;29;19955;-71
2022/06/20 17:22:55;;;;;;;;;;;;;;;28.25;63.20;97887.00;4811130;29;19954;-71
2022/06/20 17:25:31;;;;;;;;;;;;;;;28.15;58.67;97888.59;4812334;29;19956;-71
2022/06/20 17:28:16;;;;;;;;;;;;;;;28.09;59.02;97881.31;4816970;29;19951;-71
2022/06/20 17:30:46;;;;;;;;;;;;;;;28.06;58.51;97876.59;4821045;29;19960;-71
2022/06/20 17:33:30;;;;;;;;;;;;;;;27.97;58.93;97875.53;4828924;29;20248;-71
2022/06/20 17:35:58;;;;;;;;;;;;;;;27.80;59.85;97879.75;4829023;29;20017;-71
2022/06/20 17:38:25;;;;;;;;;;;;;;;27.80;61.81;97876.91;4828747;29;20300;-71
2022/06/20 17:41:10;;;;;;;;;;;;;;;27.73;57.24;97871.69;4825590;29;19950;-64
2022/06/20 17:44:01;;;;;;;;;;;;;;;27.65;58.06;97870.63;4829393;29;19951;-64
2022/06/20 17:46:34;;;;;;;;;;;;;;;27.54;57.77;97877.16;4828216;29;20274;-64
2022/06/20 17:49:30;;;;;;;;;;;;;;;27.55;58.32;97875.06;4828349;29;19951;-64
2022/06/20 17:52:04;;;;;;;;;;;;;;;27.56;59.49;97877.41;4782348;29;20241;-63
2022/06/20 17:54:40;;;;;;;;;;;;;;;27.45;59.07;97874.56;4825605;29;20361;-64
2022/06/20 17:57:28;;;;;;;;;;;;;;;27.39;59.71;97859.41;4828376;29;20204;-63
2022/06/20 18:00:11;;;;;;;;;;;;;;;27.43;62.06;97859.16;4822305;29;19952;-64
2022/06/20 18:02:40;;;;;;;;;;;;;;;27.39;62.11;97865.16;4828935;29;19952;-63
2022/06/20 18:05:23;;;;;;;;;;;;;;;27.26;60.91;97862.00;4817264;29;20216;-63
2022/06/20 18:07:57;;;;;;;;;;;;;;;27.28;61.66;97862.25;4821302;29;19951;-67
2022/06/20 18:10:28;;;;;;;;;;;;;;;27.16;60.59;97861.47;4827416;29;20323;-68
2022/06/20 18:12:59;;;;;;;;;;;;;;;27.17;60.62;97863.03;4827910;29;19972;-68
2022/06/20 18:15:32;;;;;;;;;;;;;;;27.14;60.17;97864.06;4828051;29;19956;-68
2022/06/20 18:18:08;;;;;;;;;;;;;;;27.08;59.18;97862.50;4827616;29;19969;-68
2022/06/20 18:20:45;;;;;;;;;;;;;;;27.01;60.43;97860.13;4824919;29;19946;-68
2022/06/20 18:23:18;;;;;;;;;;;;;;;27.01;62.49;97865.88;4827469;29;19957;-67
2022/06/20 18:25:48;;;;;;;;;;;;;;;26.93;61.55;97870.56;4827555;29;20232;-67
2022/06/20 18:28:16;;;;;;;;;;;;;;;26.98;61.20;97864.84;4827629;29;19951;-69
2022/06/20 18:30:49;;;;;;;;;;;;;;;26.91;61.60;97868.22;4830503;29;19952;-67
2022/06/20 18:33:31;;;;;;;;;;;;;;;26.86;59.47;97868.19;4822500;29;20361;-67
2022/06/20 18:35:59;;;;;;;;;;;;;;;26.87;60.80;97869.78;4830459;29;19948;-67
2022/06/20 18:38:28;;;;;;;;;;;;;;;26.85;60.15;97876.00;4830155;29;19948;-67
2022/06/20 18:40:59;;;;;;;;;;;;;;;26.73;61.68;97866.56;4829848;29;19958;-67
2022/06/20 18:43:29;;;;;;;;;;;;;;;26.77;60.45;97874.19;4830975;29;19961;-67
2022/06/20 18:46:06;;;;;;;;;;;;;;;26.74;60.22;97864.50;4828147;29;19973;-68
2022/06/20 18:48:34;;;;;;;;;;;;;;;26.71;61.22;97877.00;4830762;29;19954;-65
2022/06/20 18:51:07;;;;;;;;;;;;;;;26.64;61.33;97868.88;4828602;29;20230;-67
2022/06/20 18:53:36;;;;;;;;;;;;;;;26.60;61.72;97874.91;4825828;29;19964;-63
2022/06/20 18:56:09;;;;;;;;;;;;;;;26.59;62.25;97879.06;4828549;29;19957;-62
2022/06/20 18:58:57;;;;;;;;;;;;;;;26.64;61.34;97874.63;4828117;29;20358;-62
2022/06/20 19:01:46;;;;;;;;;;;;;;;26.48;61.94;97873.25;4825954;29;19956;-62
2022/06/20 19:04:32;;;;;;;;;;;;;;;26.43;62.17;97862.59;4828324;29;19958;-62
2022/06/20 19:07:15;;;;;;;;;;;;;;;26.46;61.72;97870.13;4824705;29;19955;-62
2022/06/20 19:10:01;;;;;;;;;;;;;;;26.32;61.87;97874.00;4827063;29;19948;-62
2022/06/20 19:12:42;;;;;;;;;;;;;;;26.31;64.57;97869.53;4825180;29;19946;-63
2022/06/20 19:15:28;;;;;;;;;;;;;;;26.25;62.85;97871.63;4829896;29;19964;-63
2022/06/20 19:18:14;;;;;;;;;;;;;;;26.22;63.26;97878.38;4825885;29;19948;-62
2022/06/20 19:20:41;;;;;;;;;;;;;;;26.19;61.39;97862.19;4830081;29;19948;-63
2022/06/20 19:23:28;;;;;;;;;;;;;;;26.17;63.57;97881.97;4830071;29;20337;-62
2022/06/20 19:25:59;;;;;;;;;;;;;;;26.14;62.22;97877.28;4829396;29;19955;-63
2022/06/20 19:28:34;;;;;;;;;;;;;;;26.18;61.70;97865.56;4826518;29;19954;-63
2022/06/20 19:31:13;;;;;;;;;;;;;;;26.10;61.00;97866.03;4829729;29;19975;-63
2022/06/20 19:33:41;;;;;;;;;;;;;;;26.04;61.72;97870.19;4825104;29;19967;-62
2022/06/20 19:36:14;;;;;;;;;;;;;;;26.07;60.62;97866.25;4821613;29;19955;-62
2022/06/20 19:38:47;;;;;;;;;;;;;;;26.02;60.39;97870.66;4825979;29;19955;-63
2022/06/20 19:41:23;;;;;;;;;;;;;;;26.04;61.04;97885.25;4827714;29;19947;-63
2022/06/20 19:43:50;;;;;;;;;;;;;;;26.07;59.17;97875.66;4829820;29;20240;-63
2022/06/20 19:46:36;;;;;;;;;;;;;;;26.07;59.22;97872.78;4829095;29;20381;-63
2022/06/20 19:49:22;;;;;;;;;;;;;;;26.03;60.11;97888.66;4823224;29;19948;-63
2022/06/20 19:51:50;;;;;;;;;;;;;;;25.94;60.54;97871.69;4819024;29;19954;-63
2022/06/20 19:54:18;;;;;;;;;;;;;;;26.02;58.70;97878.47;4824035;29;19962;-63
2022/06/20 19:57:04;;;;;;;;;;;;;;;25.98;59.52;97878.72;4829305;29;19948;-63
2022/06/20 19:59:31;;;;;;;;;;;;;;;26.01;58.11;97888.38;4829908;29;19978;-63
2022/06/20 20:02:17;;;;;;;;;;;;;;;25.97;58.97;97876.38;4829369;29;19983;-62
2022/06/20 20:04:49;;;;;;;;;;;;;;;25.98;58.88;97881.59;4830028;29;19947;-64
2022/06/20 20:07:25;;;;;;;;;;;;;;;25.99;58.26;97899.59;4827687;29;19952;-62
2022/06/20 20:09:52;;;;;;;;;;;;;;;25.85;59.39;97892.72;4825671;29;19948;-63
2022/06/20 20:12:20;;;;;;;;;;;;;;;25.85;60.04;97889.06;4829466;29;20364;-63
2022/06/20 20:14:59;;;;;;;;;;;;;;;25.89;58.78;97890.41;4829580;29;19971;-63
2022/06/20 20:17:28;;;;;;;;;;;;;;;25.85;57.88;97886.97;4825565;29;19963;-63
2022/06/20 20:19:59;;;;;;;;;;;;;;;25.82;57.69;97893.72;4826712;29;19952;-64
2022/06/20 20:22:33;;;;;;;;;;;;;;;25.85;58.79;97906.25;4828163;29;20334;-63
2022/06/20 20:25:19;;;;;;;;;;;;;;;25.88;59.09;97905.22;4823053;29;19967;-63
2022/06/20 20:27:56;;;;;;;;;;;;;;;25.83;58.84;97901.03;4827785;29;19951;-63
2022/06/20 20:30:42;;;;;;;;;;;;;;;25.76;59.92;97915.81;4827102;29;19965;-63
2022/06/20 20:33:27;;;;;;;;;;;;;;;25.72;59.91;97925.94;4827816;29;19949;-63
2022/06/20 20:36:08;;;;;;;;;;;;;;;25.62;60.33;97913.91;4828522;29;20237;-63
2022/06/20 20:38:51;;;;;;;;;;;;;;;25.60;60.65;97922.22;4825781;29;19959;-63
2022/06/20 20:41:44;;;;;;;;;;;;;;;25.58;62.85;97921.16;4823423;29;19950;-63
2022/06/20 20:44:20;;;;;;;;;;;;;;;25.49;62.11;97929.91;4825850;29;19948;-63
2022/06/20 20:46:50;;;;;;;;;;;;;;;25.55;61.51;97940.13;4822155;29;19977;-63
2022/06/20 20:49:24;;;;;;;;;;;;;;;25.55;60.64;97940.13;4828218;29;19951;-63
2022/06/20 20:51:57;;;;;;;;;;;;;;;25.60;60.48;97932.88;4828143;29;19948;-63
2022/06/20 20:54:27;;;;;;;;;;;;;;;25.57;60.49;97937.56;4828432;29;20277;-63
2022/06/20 20:56:57;;;;;;;;;;;;;;;25.57;60.58;97936.75;4828960;29;19948;-63
2022/06/20 20:59:28;;;;;;;;;;;;;;;25.59;60.15;97943.56;4828445;29;19952;-63
2022/06/20 21:01:56;;;;;;;;;;;;;;;25.56;60.14;97953.16;4825611;29;20234;-64
2022/06/20 21:04:23;;;;;;;;;;;;;;;25.51;60.43;97945.28;4826310;29;19948;-64
2022/06/20 21:06:54;;;;;;;;;;;;;;;25.46;60.72;97939.53;4827257;29;19955;-64
2022/06/20 21:09:24;;;;;;;;;;;;;;;25.52;58.11;97943.22;4828937;29;19955;-64
2022/06/20 21:11:52;;;;;;;;;;;;;;;25.52;60.56;97960.41;4825294;29;20333;-63
2022/06/20 21:14:37;;;;;;;;;;;;;;;25.48;60.12;97966.34;4827557;29;19970;-65
2022/06/20 21:17:13;;;;;;;;;;;;;;;25.51;58.39;97973.94;4823658;29;19950;-64
2022/06/20 21:19:40;;;;;;;;;;;;;;;25.43;59.30;97962.09;4828233;29;19958;-64
2022/06/20 21:22:10;;;;;;;;;;;;;;;25.47;59.45;97976.25;4827399;29;19982;-64
2022/06/20 21:24:44;;;;;;;;;;;;;;;25.42;60.34;97972.00;4827001;29;19960;-64
2022/06/20 21:27:16;;;;;;;;;;;;;;;25.44;60.35;97960.84;4821577;29;19949;-63